Terminal Aerodrome Forecast
Issued by NWS

Home | Current Version | Previous Version | Text Only | Print | Product List | Glossary On
Versions: 1 2 3 4 5 6 7 8 9 10 11 12 13 14 15 16 17 18 19 20 21
000
FTUS46 KMTR 291739
TAFSFO
TAF
KSFO 291739Z 2918/3024 33007KT P6SM SKC
     FM291900 30011KT P6SM SKC
     FM292200 30018KT P6SM SKC
     FM300300 30012KT P6SM FEW008
     FM300600 30010KT P6SM FEW005
     FM301200 30007KT P6SM SCT005
     FM301600 31005KT P6SM FEW006 FEW100
     FM302100 29013KT P6SM FEW100=

USA.gov is the U.S. government's official web portal to all federal, state and local government web resources and services.